Time;durP1;ratioP1;P1;durP2;ratioP2;P2;SDS_P1;SDS_P2;PMS_P1;PMS_P2;Temp;Humidity;BMP_temperature;BMP_pressure;BME280_temperature;BME280_humidity;BME280_pressure;Samples;Min_cycle;Max_cycle;Signal;HPM_P1;HPM_P2
2023/10/10 00:00:57;;;;;;;11.85;7.25;;;;;;;12.02;100.00;98654.53;2578667;28;20137;-87
2023/10/10 00:02:24;;;;;;;13.73;8.07;;;;;;;12.14;100.00;98643.63;2584709;28;20072;-86
2023/10/10 00:03:42;;;;;;;12.75;7.50;;;;;;;12.20;100.00;98643.44;2578629;28;20128;-86
2023/10/10 00:05:02;;;;;;;16.30;7.43;;;;;;;12.28;100.00;98643.22;2578681;28;20572;-86
2023/10/10 00:06:18;;;;;;;14.63;7.25;;;;;;;12.35;100.00;98644.72;2583571;28;20076;-86
2023/10/10 00:07:42;;;;;;;16.88;7.72;;;;;;;12.25;100.00;98640.69;2589471;28;20054;-87
2023/10/10 00:08:57;;;;;;;15.75;7.65;;;;;;;12.45;100.00;98640.03;2589520;28;20044;-87
2023/10/10 00:10:13;;;;;;;10.43;6.30;;;;;;;12.49;100.00;98635.53;2589522;28;20049;-86
2023/10/10 00:11:31;;;;;;;15.23;6.72;;;;;;;12.38;100.00;98631.50;2589387;28;20061;-86
2023/10/10 00:12:48;;;;;;;12.20;6.28;;;;;;;11.90;100.00;98635.59;2589494;28;20468;-86
2023/10/10 00:14:15;;;;;;;13.38;6.95;;;;;;;11.71;100.00;98624.78;2589603;28;20050;-86
2023/10/10 00:15:35;;;;;;;11.63;6.85;;;;;;;11.78;100.00;98628.09;2589117;28;20541;-86
2023/10/10 00:16:59;;;;;;;15.32;7.53;;;;;;;11.82;100.00;98632.31;2589746;28;20111;-86
2023/10/10 00:18:18;;;;;;;13.63;7.90;;;;;;;11.85;100.00;98629.59;2589542;28;20048;-88
2023/10/10 00:19:43;;;;;;;19.92;7.55;;;;;;;12.02;100.00;98618.63;2589586;28;20136;-87
2023/10/10 00:21:09;;;;;;;14.68;8.70;;;;;;;11.97;100.00;98617.91;2589344;28;20054;-86
2023/10/10 00:22:33;;;;;;;18.63;7.75;;;;;;;12.04;100.00;98619.44;2589395;28;20436;-86
2023/10/10 00:23:50;;;;;;;13.63;7.75;;;;;;;12.28;100.00;98620.41;2589067;28;20650;-87
2023/10/10 00:25:12;;;;;;;14.55;7.30;;;;;;;12.40;100.00;98623.56;2589344;28;20049;-86
2023/10/10 00:26:27;;;;;;;;;;;;;;;12.32;100.00;98622.97;2589865;28;20124;-86
2023/10/10 00:27:43;;;;;;;16.58;7.43;;;;;;;12.35;100.00;98625.50;2589179;28;19925;-86
2023/10/10 00:29:00;;;;;;;15.27;7.60;;;;;;;12.38;100.00;98614.88;2588850;28;20096;-87
2023/10/10 00:30:16;;;;;;;13.38;7.63;;;;;;;12.49;100.00;98622.41;2589229;28;20069;-87
2023/10/10 00:31:31;;;;;;;13.00;8.35;;;;;;;12.60;100.00;98624.69;2589226;28;20139;-86
2023/10/10 00:32:47;;;;;;;12.27;7.38;;;;;;;12.68;100.00;98623.53;2589394;28;20918;-87
2023/10/10 00:34:03;;;;;;;18.63;7.95;;;;;;;12.64;100.00;98621.91;2589186;28;20469;-86
2023/10/10 00:35:19;;;;;;;14.52;8.15;;;;;;;12.62;100.00;98621.09;2578327;28;20125;-86
2023/10/10 00:36:35;;;;;;;11.32;6.32;;;;;;;12.69;100.00;98624.38;2582232;28;20423;-87
2023/10/10 00:37:51;;;;;;;13.07;5.80;;;;;;;12.64;100.00;98626.28;2589163;28;20069;-86
2023/10/10 00:40:31;;;;;;;8.63;5.13;;;;;;;12.51;100.00;98633.75;2588946;28;20057;-86
2023/10/10 00:43:12;;;;;;;10.60;5.72;;;;;;;12.53;100.00;98627.50;2589408;28;20057;-87
2023/10/10 00:44:28;;;;;;;11.88;5.47;;;;;;;12.51;100.00;98636.38;2589262;28;20576;-88
2023/10/10 00:45:51;;;;;;;9.82;5.22;;;;;;;12.39;100.00;98633.22;2589001;28;20050;-88
2023/10/10 00:47:12;;;;;;;8.07;5.18;;;;;;;12.25;100.00;98636.28;2589042;28;20061;-86
2023/10/10 00:48:29;;;;;;;11.38;5.60;;;;;;;11.84;100.00;98633.13;2589301;28;20500;-89
2023/10/10 00:49:46;;;;;;;11.20;6.25;;;;;;;11.96;100.00;98627.50;2589020;28;20056;-86
2023/10/10 00:51:09;;;;;;;10.18;5.93;;;;;;;11.93;100.00;98638.09;2589358;28;20060;-87
2023/10/10 00:52:24;;;;;;;10.40;6.20;;;;;;;12.14;100.00;98636.63;2578294;28;20050;-87
2023/10/10 00:53:45;;;;;;;11.07;6.38;;;;;;;12.12;100.00;98637.56;2582905;28;20046;-86
2023/10/10 00:55:00;;;;;;;10.02;5.55;;;;;;;11.81;100.00;98635.84;2588289;28;20046;-87
2023/10/10 00:56:16;;;;;;;11.52;6.57;;;;;;;11.91;100.00;98636.44;2587639;28;21020;-86
2023/10/10 00:57:38;;;;;;;11.50;6.15;;;;;;;11.76;100.00;98641.22;2589424;28;20137;-87
2023/10/10 00:58:53;;;;;;;14.15;6.55;;;;;;;11.67;100.00;98639.75;2588973;28;20100;-86
2023/10/10 01:00:14;;;;;;;11.13;6.55;;;;;;;11.89;100.00;98639.13;2589415;28;20046;-86
2023/10/10 01:01:31;;;;;;;12.40;6.80;;;;;;;11.63;100.00;98629.38;2588720;28;20053;-86
2023/10/10 01:02:50;;;;;;;10.35;6.00;;;;;;;11.85;100.00;98632.22;2578272;28;20054;-87
2023/10/10 01:04:09;;;;;;;10.07;6.00;;;;;;;11.89;100.00;98633.88;2583079;28;20050;-86
2023/10/10 01:05:39;;;;;;;11.10;6.45;;;;;;;12.01;100.00;98635.25;2589253;28;20049;-86
2023/10/10 01:06:55;;;;;;;9.70;5.78;;;;;;;12.20;100.00;98629.44;2588833;28;20069;-86
2023/10/10 01:08:10;;;;;;;14.90;5.65;;;;;;;12.24;100.00;98634.56;2578163;28;20046;-86
2023/10/10 01:09:34;;;;;;;9.23;5.03;;;;;;;12.31;100.00;98629.97;2582230;28;20054;-86
2023/10/10 01:10:49;;;;;;;11.48;6.10;;;;;;;12.26;100.00;98624.88;2588828;28;20542;-86
2023/10/10 01:12:05;;;;;;;7.53;5.68;;;;;;;12.09;100.00;98624.53;2588688;28;20054;-86
2023/10/10 01:13:21;;;;;;;13.40;6.90;;;;;;;12.07;100.00;98621.97;2589317;28;20046;-86
2023/10/10 01:14:38;;;;;;;11.52;6.95;;;;;;;12.27;100.00;98618.69;2588060;28;20068;-86
2023/10/10 01:15:56;;;;;;;12.80;7.05;;;;;;;12.38;100.00;98615.75;2578040;28;20526;-86
2023/10/10 01:17:12;;;;;;;13.27;6.75;;;;;;;12.44;100.00;98619.94;2582660;28;20568;-86
2023/10/10 01:18:27;;;;;;;9.93;6.55;;;;;;;12.45;100.00;98624.28;2588408;28;20049;-86
2023/10/10 01:19:44;;;;;;;10.50;6.50;;;;;;;12.49;100.00;98636.41;2577799;28;20575;-87
2023/10/10 01:21:02;;;;;;;11.63;6.57;;;;;;;12.50;100.00;98632.88;2582533;28;20073;-86
2023/10/10 01:22:37;;;;;;;8.55;5.90;;;;;;;12.55;100.00;98632.72;2578033;28;20081;-86
2023/10/10 01:23:52;;;;;;;9.23;5.43;;;;;;;12.57;100.00;98630.91;2584982;28;20093;-86
2023/10/10 01:26:45;;;;;;;9.40;6.07;;;;;;;12.56;100.00;98632.66;2589056;28;20072;-86
2023/10/10 01:28:03;;;;;;;9.95;6.10;;;;;;;12.55;100.00;98627.47;2588665;28;20417;-86
2023/10/10 01:29:26;;;;;;;11.90;6.15;;;;;;;12.56;100.00;98622.13;2578263;28;20149;-87
2023/10/10 01:32:11;;;;;;;10.90;6.90;;;;;;;12.33;100.00;98624.69;2583793;28;20057;-87
2023/10/10 01:33:36;;;;;;;12.10;6.18;;;;;;;12.11;100.00;98620.09;2588893;28;20049;-87
2023/10/10 01:34:52;;;;;;;13.70;6.30;;;;;;;11.84;100.00;98622.63;2577747;28;20101;-86
2023/10/10 01:36:12;;;;;;;11.40;7.20;;;;;;;11.92;100.00;98618.03;2582406;28;20050;-86
2023/10/10 01:37:27;;;;;;;12.13;7.40;;;;;;;12.04;100.00;98626.47;2588598;28;20081;-87
2023/10/10 01:38:56;;;;;;;15.55;7.72;;;;;;;12.19;100.00;98631.22;2588548;28;20413;-87
2023/10/10 01:40:17;;;;;;;10.52;6.53;;;;;;;12.28;100.00;98630.91;2588384;28;20061;-86
2023/10/10 01:41:38;;;;;;;14.87;7.63;;;;;;;12.32;100.00;98629.06;2588917;28;20046;-86
2023/10/10 01:42:54;;;;;;;11.82;6.30;;;;;;;12.35;100.00;98634.22;2587719;28;20521;-86
2023/10/10 01:44:13;;;;;;;10.30;5.93;;;;;;;12.45;100.00;98636.53;2574925;28;20050;-86
2023/10/10 01:45:29;;;;;;;12.65;6.60;;;;;;;12.44;100.00;98638.34;2582462;28;20060;-87
2023/10/10 01:46:45;;;;;;;10.63;5.55;;;;;;;12.44;100.00;98633.06;2588614;28;20095;-86
2023/10/10 01:48:08;;;;;;;7.88;5.05;;;;;;;12.47;100.00;98630.34;2588640;28;20092;-87
2023/10/10 01:49:29;;;;;;;8.18;5.57;;;;;;;12.51;100.00;98631.09;2588511;28;20133;-87
2023/10/10 01:50:46;;;;;;;8.30;4.90;;;;;;;12.45;100.00;98632.16;2587835;28;20052;-87
2023/10/10 01:52:02;;;;;;;9.68;5.72;;;;;;;12.35;100.00;98630.75;2588245;28;20086;-87
2023/10/10 01:53:19;;;;;;;11.57;5.50;;;;;;;12.36;100.00;98624.56;2588460;28;20104;-87
2023/10/10 01:54:39;;;;;;;8.75;5.20;;;;;;;12.40;100.00;98628.81;2588164;28;20589;-87
2023/10/10 01:55:55;;;;;;;8.05;5.40;;;;;;;12.39;100.00;98634.97;2588596;28;20046;-87
2023/10/10 01:57:21;;;;;;;11.13;5.68;;;;;;;12.41;100.00;98633.16;2587210;28;20358;-87
2023/10/10 01:58:37;;;;;;;11.27;5.78;;;;;;;12.37;100.00;98631.53;2577137;28;20082;-86
2023/10/10 01:59:53;;;;;;;10.23;5.70;;;;;;;12.42;100.00;98627.00;2581856;28;20182;-87
2023/10/10 02:01:18;;;;;;;9.50;5.70;;;;;;;12.45;100.00;98616.41;2588528;28;20425;-87
2023/10/10 02:02:34;;;;;;;10.13;5.13;;;;;;;12.45;100.00;98618.16;2588428;28;20046;-88
2023/10/10 02:03:53;;;;;;;9.82;4.68;;;;;;;12.49;100.00;98628.53;2588507;28;20050;-87
2023/10/10 02:05:11;;;;;;;20.05;5.13;;;;;;;12.54;100.00;98631.00;2588040;28;20073;-86
2023/10/10 02:06:30;;;;;;;8.50;4.88;;;;;;;12.38;100.00;98636.75;2588829;28;20084;-87
2023/10/10 02:07:53;;;;;;;7.47;4.97;;;;;;;12.19;100.00;98625.09;2586723;28;20073;-87
2023/10/10 02:09:12;;;;;;;8.85;5.68;;;;;;;12.15;100.00;98626.97;2588269;28;20053;-87
2023/10/10 02:10:29;;;;;;;8.55;4.95;;;;;;;12.06;100.00;98620.25;2589176;28;20573;-89
2023/10/10 02:11:54;;;;;;;8.98;5.72;;;;;;;12.08;100.00;98628.06;2590341;28;20073;-87
2023/10/10 02:13:11;;;;;;;11.10;5.90;;;;;;;12.05;100.00;98620.31;2578926;28;20506;-87
2023/10/10 02:14:30;;;;;;;8.60;6.00;;;;;;;12.05;100.00;98622.94;2582428;28;20045;-86
2023/10/10 02:15:45;;;;;;;9.15;5.55;;;;;;;12.16;100.00;98631.34;2577343;28;20066;-86
2023/10/10 02:17:09;;;;;;;9.57;5.93;;;;;;;12.17;100.00;98630.44;2571784;28;20390;-86
2023/10/10 02:18:38;;;;;;;8.10;4.43;;;;;;;12.27;100.00;98634.44;2582948;28;20084;-86
2023/10/10 02:19:57;;;;;;;9.75;5.05;;;;;;;12.26;100.00;98630.13;2587967;28;20632;-86
2023/10/10 02:21:17;;;;;;;9.27;4.97;;;;;;;12.26;100.00;98631.91;2588296;28;20170;-86
2023/10/10 02:22:47;;;;;;;7.22;4.75;;;;;;;12.30;100.00;98633.50;2577282;28;20069;-86
2023/10/10 02:24:25;;;;;;;8.20;4.78;;;;;;;12.28;100.00;98638.78;2583962;28;20054;-87
2023/10/10 02:25:39;;;;;;;8.38;5.07;;;;;;;12.27;100.00;98637.09;2587999;28;20152;-87
2023/10/10 02:26:55;;;;;;;9.63;4.70;;;;;;;12.32;100.00;98629.06;2588506;28;20050;-86
2023/10/10 02:30:52;;;;;;;8.55;4.97;;;;;;;12.21;100.00;98641.66;2587737;28;20988;-87
2023/10/10 02:32:13;;;;;;;41.03;6.70;;;;;;;12.25;100.00;98640.69;2588466;28;20056;-87
2023/10/10 02:33:31;;;;;;;262.08;14.50;;;;;;;12.19;100.00;98644.34;2587906;28;21055;-87
2023/10/10 02:35:09;;;;;;;93.18;7.13;;;;;;;12.17;100.00;98645.31;2588373;28;20049;-87
2023/10/10 02:36:34;;;;;;;71.03;7.20;;;;;;;12.16;100.00;98652.34;2587543;28;20124;-86
2023/10/10 02:37:54;;;;;;;16.35;6.10;;;;;;;11.99;100.00;98651.03;2588508;28;20489;-86
2023/10/10 02:39:19;;;;;;;9.35;5.63;;;;;;;11.99;100.00;98650.19;2587963;28;20057;-87
2023/10/10 02:40:42;;;;;;;11.15;5.55;;;;;;;12.03;100.00;98643.97;2588267;28;20124;-87
2023/10/10 02:42:02;;;;;;;10.38;5.65;;;;;;;12.04;100.00;98639.59;2588134;28;20046;-87
2023/10/10 02:43:33;;;;;;;12.02;5.75;;;;;;;11.87;100.00;98639.16;2588422;28;20413;-87
2023/10/10 02:44:57;;;;;;;15.13;5.93;;;;;;;11.45;100.00;98644.75;2587875;28;20092;-88
2023/10/10 02:46:20;;;;;;;27.73;6.40;;;;;;;11.28;100.00;98650.44;2588327;28;20164;-87
2023/10/10 02:47:36;;;;;;;11.00;5.90;;;;;;;11.12;100.00;98656.13;2577150;28;20050;-87
2023/10/10 02:48:55;;;;;;;13.55;6.40;;;;;;;11.28;100.00;98648.72;2581686;28;20460;-87
2023/10/10 02:50:13;;;;;;;12.57;6.95;;;;;;;11.52;100.00;98642.81;2587868;28;20046;-87
2023/10/10 02:51:31;;;;;;;12.57;6.68;;;;;;;11.72;100.00;98647.47;2587984;28;20085;-87
2023/10/10 02:52:47;;;;;;;10.55;6.38;;;;;;;11.83;100.00;98649.78;2587906;28;20070;-86
2023/10/10 02:54:19;;;;;;;9.75;5.85;;;;;;;11.84;100.00;98647.13;2588079;28;20049;-87
2023/10/10 02:55:40;;;;;;;10.50;5.93;;;;;;;11.62;100.00;98651.28;2588082;28;20050;-86
2023/10/10 02:56:58;;;;;;;13.18;6.25;;;;;;;11.37;100.00;98652.84;2588043;28;20603;-86
2023/10/10 02:58:21;;;;;;;15.93;6.43;;;;;;;11.42;100.00;98656.16;2587972;28;20228;-86
2023/10/10 02:59:39;;;;;;;13.50;7.32;;;;;;;11.29;100.00;98655.66;2587791;28;20069;-87
2023/10/10 03:00:57;;;;;;;13.90;6.78;;;;;;;11.40;100.00;98652.75;2587558;28;20192;-87
2023/10/10 03:02:19;;;;;;;14.35;6.95;;;;;;;11.55;100.00;98654.09;2587940;28;20046;-87
2023/10/10 03:03:40;;;;;;;13.52;7.05;;;;;;;11.70;100.00;98655.38;2577190;28;20053;-87
2023/10/10 03:06:18;;;;;;;11.18;6.72;;;;;;;11.43;100.00;98652.66;2588134;28;20580;-86
2023/10/10 03:07:35;;;;;;;11.13;6.70;;;;;;;11.61;100.00;98649.56;2588153;28;20536;-87
2023/10/10 03:09:06;;;;;;;12.23;6.55;;;;;;;11.82;100.00;98650.69;2587960;28;20053;-86
2023/10/10 03:10:22;;;;;;;11.07;6.60;;;;;;;11.84;100.00;98654.13;2587771;28;20076;-87
2023/10/10 03:11:52;;;;;;;11.00;6.13;;;;;;;11.89;100.00;98654.84;2588207;28;20053;-87
2023/10/10 03:14:53;;;;;;;9.18;5.55;;;;;;;11.91;100.00;98658.28;2564727;28;20063;-86
2023/10/10 03:17:44;;;;;;;10.65;5.55;;;;;;;11.96;100.00;98656.38;2587875;28;20081;-87
2023/10/10 03:20:25;;;;;;;11.75;5.63;;;;;;;11.98;100.00;98654.56;2588312;28;20412;-87
2023/10/10 03:26:06;;;;;;;7.72;4.93;;;;;;;12.05;100.00;98655.28;2588067;28;20080;-86
2023/10/10 03:28:47;;;;;;;53.00;7.25;;;;;;;12.13;100.00;98660.28;2588220;28;20057;-87
2023/10/10 03:31:42;;;;;;;14.95;5.35;;;;;;;11.70;100.00;98655.38;2587435;28;20097;-88
2023/10/10 03:33:09;;;;;;;46.78;6.93;;;;;;;11.67;100.00;98654.63;2587939;28;20038;-86
2023/10/10 03:34:43;;;;;;;15.40;6.40;;;;;;;11.63;100.00;98647.75;2587436;28;20057;-87
2023/10/10 03:36:00;;;;;;;9.70;5.60;;;;;;;11.69;100.00;98652.81;2587510;28;20072;-88
2023/10/10 03:37:28;;;;;;;11.05;5.80;;;;;;;11.61;100.00;98645.19;2587602;28;20053;-86
2023/10/10 05:23:34;;;;;;;12.40;6.80;;;;;;;12.15;100.00;98674.22;2588754;28;20064;-86
2023/10/10 05:24:51;;;;;;;11.95;6.85;;;;;;;12.21;100.00;98667.91;2588702;28;20046;-87
2023/10/10 05:26:13;;;;;;;12.60;6.53;;;;;;;12.23;100.00;98666.97;2588874;28;20129;-86
2023/10/10 05:27:32;;;;;;;11.68;6.90;;;;;;;12.26;100.00;98672.13;2589018;28;20100;-86
2023/10/10 05:28:48;;;;;;;12.27;6.53;;;;;;;12.24;100.00;98668.69;2588324;28;20428;-89
2023/10/10 05:30:05;;;;;;;12.35;6.90;;;;;;;12.29;100.00;98668.53;2588660;28;20092;-86
2023/10/10 05:31:21;;;;;;;11.07;7.18;;;;;;;12.38;100.00;98675.28;2588893;28;20120;-86
2023/10/10 05:32:54;;;;;;;11.05;6.55;;;;;;;12.39;100.00;98667.34;2588461;28;20049;-86
2023/10/10 05:34:10;;;;;;;9.45;6.30;;;;;;;12.43;100.00;98676.84;2589015;28;20100;-86
2023/10/10 05:35:37;;;;;;;9.18;5.78;;;;;;;12.38;100.00;98668.25;2588650;28;20057;-86
2023/10/10 05:36:53;;;;;;;9.88;6.20;;;;;;;12.26;100.00;98672.13;2588100;28;20199;-86
2023/10/10 05:38:08;;;;;;;13.10;6.88;;;;;;;12.10;100.00;98671.75;2588826;28;20064;-86
2023/10/10 05:39:25;;;;;;;10.57;6.50;;;;;;;11.80;100.00;98665.63;2588581;28;20414;-86
2023/10/10 05:40:43;;;;;;;15.45;7.50;;;;;;;11.67;100.00;98665.97;2588404;28;20591;-86
2023/10/10 05:42:01;;;;;;;15.90;8.07;;;;;;;11.93;100.00;98673.97;2588358;28;20042;-85
2023/10/10 05:43:17;;;;;;;17.25;7.68;;;;;;;12.05;100.00;98667.53;2588513;28;20543;-87
2023/10/10 05:44:38;;;;;;;14.63;7.90;;;;;;;11.91;100.00;98668.78;2588414;28;20391;-86
2023/10/10 05:45:54;;;;;;;14.23;8.18;;;;;;;11.89;100.00;98672.34;2588538;28;20042;-85
2023/10/10 05:47:10;;;;;;;13.80;7.80;;;;;;;12.05;100.00;98671.00;2588606;28;20457;-86
2023/10/10 05:48:26;;;;;;;11.63;7.03;;;;;;;12.24;100.00;98671.31;2588132;28;20556;-90
2023/10/10 05:49:42;;;;;;;18.77;8.75;;;;;;;12.36;100.00;98675.34;2578305;28;20059;-93
2023/10/10 05:50:58;;;;;;;13.57;7.28;;;;;;;12.41;100.00;98676.03;2578367;28;20042;-93
2023/10/10 05:52:14;;;;;;;13.13;7.57;;;;;;;12.38;100.00;98684.03;2578257;28;20494;-93
2023/10/10 05:53:33;;;;;;;15.20;8.43;;;;;;;12.39;100.00;98696.25;2571823;28;20165;-93
2023/10/10 05:54:48;;;;;;;13.40;6.95;;;;;;;12.31;100.00;98698.22;2577980;28;20157;-92
2023/10/10 05:56:13;;;;;;;10.02;6.28;;;;;;;12.43;100.00;98696.97;2578936;28;20054;-94
2023/10/10 05:57:29;;;;;;;8.75;5.88;;;;;;;12.46;100.00;98688.16;2573435;28;20057;-94
2023/10/10 05:58:47;;;;;;;10.95;5.95;;;;;;;12.50;100.00;98690.63;2572601;28;20046;-93
2023/10/10 06:00:10;;;;;;;19.73;11.48;;;;;;;12.49;100.00;98683.66;2572983;28;20044;-96
2023/10/10 06:01:26;;;;;;;12.50;7.38;;;;;;;12.48;100.00;98696.84;2582828;28;20073;-93
2023/10/10 06:02:42;;;;;;;13.07;7.88;;;;;;;12.56;100.00;98693.06;2577522;28;20046;-93
2023/10/10 06:03:57;;;;;;;13.25;7.50;;;;;;;12.60;100.00;98692.97;2577943;28;20062;-93
2023/10/10 06:05:17;;;;;;;12.27;7.13;;;;;;;12.63;100.00;98698.13;2571949;28;20080;-92
2023/10/10 06:06:32;;;;;;;11.93;6.70;;;;;;;12.69;100.00;98700.53;2572568;28;20149;-93
2023/10/10 06:07:49;;;;;;;12.60;6.40;;;;;;;12.71;100.00;98701.34;2582100;28;20042;-93
2023/10/10 06:09:05;;;;;;;13.93;7.68;;;;;;;12.82;100.00;98703.66;2567448;28;20053;-93
2023/10/10 06:10:28;;;;;;;11.15;6.35;;;;;;;12.82;100.00;98698.38;2565811;28;20489;-92
2023/10/10 06:11:47;;;;;;;9.88;6.80;;;;;;;12.88;100.00;98697.31;2577678;28;20089;-93
2023/10/10 06:13:06;;;;;;;11.77;7.72;;;;;;;12.88;100.00;98705.22;2572172;28;20121;-92
2023/10/10 06:14:22;;;;;;;9.13;6.32;;;;;;;12.81;100.00;98701.94;2572242;28;20134;-92
2023/10/10 06:15:37;;;;;;;11.02;6.72;;;;;;;12.79;100.00;98709.84;2578024;28;20053;-93
2023/10/10 06:16:53;;;;;;;10.70;6.78;;;;;;;12.83;100.00;98708.00;2568532;28;20066;-93
2023/10/10 06:18:11;;;;;;;10.65;6.88;;;;;;;12.78;100.00;98705.50;2562661;28;20058;-92
2023/10/10 06:19:27;;;;;;;10.05;6.72;;;;;;;12.85;100.00;98707.03;2576372;28;20486;-93
2023/10/10 06:20:44;;;;;;;10.88;6.65;;;;;;;13.02;100.00;98704.72;2588261;28;20056;-93
2023/10/10 06:22:02;;;;;;;12.05;6.38;;;;;;;13.05;100.00;98704.63;2587253;28;20054;-94
2023/10/10 06:23:21;;;;;;;9.95;6.00;;;;;;;13.02;100.00;98710.00;2577756;28;20478;-94
2023/10/10 06:24:38;;;;;;;10.30;6.05;;;;;;;12.87;100.00;98714.84;2573148;28;20050;-91
2023/10/10 06:26:00;;;;;;;9.32;5.57;;;;;;;12.91;100.00;98713.00;2569178;28;21006;-93
2023/10/10 06:27:15;;;;;;;10.30;5.60;;;;;;;12.67;100.00;98715.50;2573340;28;20125;-93
2023/10/10 06:28:45;;;;;;;10.02;5.57;;;;;;;12.83;100.00;98711.47;2569933;28;20059;-94
2023/10/10 06:30:01;;;;;;;11.43;6.22;;;;;;;12.93;100.00;98708.53;2574737;28;20512;-93
2023/10/10 06:31:19;;;;;;;11.60;6.03;;;;;;;12.98;100.00;98714.47;2563604;28;20043;-93
2023/10/10 06:32:35;;;;;;;12.60;6.40;;;;;;;13.20;100.00;98713.78;2576032;28;20061;-93
2023/10/10 06:33:51;;;;;;;9.68;5.88;;;;;;;13.27;100.00;98712.66;2577834;28;20560;-92
2023/10/10 06:35:40;;;;;;;9.55;6.18;;;;;;;13.38;100.00;98712.28;2580256;28;20078;-93
2023/10/10 06:36:51;;;;;;;12.75;6.60;;;;;;;13.35;100.00;98721.13;2584665;28;20159;-93
2023/10/10 06:38:10;;;;;;;9.43;6.20;;;;;;;13.29;100.00;98721.34;2579461;28;20133;-95
2023/10/10 06:39:32;;;;;;;10.52;6.38;;;;;;;13.40;100.00;98727.06;2578906;28;20537;-92
2023/10/10 06:40:55;;;;;;;11.50;6.68;;;;;;;13.49;100.00;98725.06;2579628;28;20046;-92
2023/10/10 06:42:19;;;;;;;9.82;6.47;;;;;;;13.51;100.00;98721.50;2561010;28;20042;-93
2023/10/10 06:43:35;;;;;;;11.85;6.57;;;;;;;13.55;100.00;98725.72;2572980;28;20042;-92
2023/10/10 06:44:50;;;;;;;10.93;6.10;;;;;;;13.52;100.00;98717.94;2578426;28;20112;-92
2023/10/10 06:46:16;;;;;;;10.38;6.60;;;;;;;13.48;100.00;98726.00;2572362;28;20129;-93
2023/10/10 06:47:32;;;;;;;11.50;6.80;;;;;;;13.73;100.00;98722.50;2570871;28;20048;-94
2023/10/10 06:48:47;;;;;;;12.80;6.85;;;;;;;13.67;100.00;98724.41;2571093;28;20043;-92
2023/10/10 06:50:10;;;;;;;10.68;6.82;;;;;;;13.53;100.00;98719.66;2571890;28;20054;-92
2023/10/10 06:51:28;;;;;;;13.98;6.72;;;;;;;13.70;100.00;98726.06;2572370;28;20054;-92
2023/10/10 06:52:44;;;;;;;12.02;7.07;;;;;;;13.76;100.00;98725.88;2572827;28;20054;-92
2023/10/10 06:54:03;;;;;;;13.30;6.75;;;;;;;13.86;100.00;98725.50;2588174;28;20057;-92
2023/10/10 06:55:36;;;;;;;12.38;6.97;;;;;;;13.97;100.00;98718.94;2597173;28;20635;-93
2023/10/10 06:58:16;;;;;;;10.88;6.50;;;;;;;14.11;100.00;98725.47;2586972;28;20053;-90
2023/10/10 06:59:32;;;;;;;11.85;6.93;;;;;;;14.18;100.00;98716.41;2581560;28;20101;-90
2023/10/10 07:00:54;;;;;;;12.10;7.82;;;;;;;14.23;100.00;98724.13;2585848;28;20153;-90
2023/10/10 07:02:13;;;;;;;12.73;8.02;;;;;;;14.27;100.00;98720.47;2570670;28;20074;-90
2023/10/10 07:03:39;;;;;;;12.13;7.85;;;;;;;14.33;100.00;98719.38;2568114;28;20084;-90
2023/10/10 07:04:55;;;;;;;14.75;8.30;;;;;;;14.30;100.00;98715.06;2583373;28;20456;-91
2023/10/10 07:06:10;;;;;;;11.93;8.07;;;;;;;14.39;100.00;98717.34;2587957;28;20119;-90
2023/10/10 07:07:26;;;;;;;12.60;7.57;;;;;;;14.35;100.00;98726.31;2576698;28;20421;-90
2023/10/10 07:08:41;;;;;;;13.00;8.30;;;;;;;14.44;100.00;98717.16;2577071;28;20573;-90
2023/10/10 07:10:09;;;;;;;12.90;7.95;;;;;;;14.47;100.00;98714.41;2568260;28;20386;-90
2023/10/10 07:11:24;;;;;;;12.88;7.57;;;;;;;14.53;100.00;98723.84;2583106;28;20053;-91
2023/10/10 07:12:40;;;;;;;12.88;7.80;;;;;;;14.56;100.00;98718.44;2587703;28;20052;-90
2023/10/10 07:13:58;;;;;;;11.63;7.60;;;;;;;14.60;100.00;98721.81;2586743;28;20496;-90
2023/10/10 07:15:14;;;;;;;10.30;7.03;;;;;;;14.68;100.00;98717.13;2576850;28;20038;-90
2023/10/10 07:16:32;;;;;;;13.55;7.10;;;;;;;14.75;100.00;98721.25;2570948;28;20053;-90
2023/10/10 07:17:49;;;;;;;12.95;7.18;;;;;;;14.67;100.00;98716.25;2581546;28;20080;-90
2023/10/10 07:19:19;;;;;;;14.05;7.93;;;;;;;14.79;100.00;98712.28;2576842;28;20089;-90
2023/10/10 07:22:12;;;;;;;17.58;10.18;;;;;;;14.96;100.00;98705.47;2587750;28;20386;-92
2023/10/10 07:23:37;;;;;;;27.88;13.05;;;;;;;14.86;100.00;98714.69;2577395;28;20105;-91
2023/10/10 07:25:06;;;;;;;21.38;11.85;;;;;;;14.89;100.00;98714.53;2570452;28;20050;-92
2023/10/10 07:26:23;;;;;;;20.42;10.05;;;;;;;14.93;100.00;98719.63;2570464;28;20078;-92
2023/10/10 07:27:41;;;;;;;12.57;7.65;;;;;;;15.05;100.00;98715.63;2578475;28;20039;-91
2023/10/10 07:29:22;;;;;;;15.07;7.80;;;;;;;15.01;100.00;98723.72;2582682;28;20129;-91
2023/10/10 07:30:36;;;;;;;14.30;7.82;;;;;;;15.02;100.00;98720.19;2588174;28;20779;-91
2023/10/10 07:31:54;;;;;;;12.73;7.78;;;;;;;15.18;100.00;98715.09;2577207;28;20406;-91
2023/10/10 07:33:13;;;;;;;15.60;7.18;;;;;;;15.23;100.00;98715.78;2580505;28;20041;-93
2023/10/10 07:34:35;;;;;;;11.30;6.75;;;;;;;15.32;100.00;98711.88;2576808;28;20061;-91
2023/10/10 07:35:53;;;;;;;12.93;7.43;;;;;;;15.36;100.00;98714.31;2571353;28;20133;-91
2023/10/10 07:37:09;;;;;;;14.57;7.70;;;;;;;15.34;100.00;98710.88;2581484;28;20046;-91
2023/10/10 07:38:28;;;;;;;13.05;7.07;;;;;;;15.29;100.00;98712.88;2576896;28;20042;-91
2023/10/10 07:41:19;;;;;;;14.15;7.18;;;;;;;15.33;100.00;98716.25;2583907;28;20077;-92
2023/10/10 07:42:37;;;;;;;14.25;7.13;;;;;;;15.60;100.00;98718.59;2576490;28;20222;-91
2023/10/10 07:43:53;;;;;;;13.07;6.85;;;;;;;15.66;100.00;98715.66;2577141;28;20119;-92
2023/10/10 07:45:15;;;;;;;11.38;7.05;;;;;;;15.62;100.00;98717.59;2576828;28;20074;-91
2023/10/10 07:46:35;;;;;;;12.68;7.70;;;;;;;15.74;100.00;98717.97;2581977;28;20042;-91
2023/10/10 07:49:16;;;;;;;13.95;6.90;;;;;;;15.59;100.00;98719.53;2581585;28;20496;-90
2023/10/10 07:50:35;;;;;;;10.00;6.28;;;;;;;15.62;100.00;98722.88;2576540;28;20053;-91
2023/10/10 07:51:51;;;;;;;10.98;6.40;;;;;;;15.67;100.00;98728.81;2576511;28;20058;-89
2023/10/10 07:53:11;;;;;;;12.02;7.03;;;;;;;15.48;100.00;98723.47;2576284;28;20042;-91
2023/10/10 07:54:38;;;;;;;10.80;5.90;;;;;;;15.58;100.00;98723.94;2581250;28;20943;-90
2023/10/10 07:56:02;;;;;;;12.02;6.97;;;;;;;15.65;100.00;98725.38;2576735;28;20046;-92
2023/10/10 07:57:22;;;;;;;10.65;6.15;;;;;;;15.88;100.00;98720.84;2582083;28;20539;-92
2023/10/10 07:58:45;;;;;;;9.70;6.50;;;;;;;15.85;100.00;98725.41;2586089;28;20053;-90
2023/10/10 08:00:01;;;;;;;14.25;7.20;;;;;;;16.00;100.00;98715.97;2576425;28;20058;-91
2023/10/10 08:01:17;;;;;;;10.10;6.25;;;;;;;15.98;100.00;98715.19;2576372;28;20116;-90
2023/10/10 08:02:32;;;;;;;11.63;6.50;;;;;;;16.08;100.00;98721.75;2580468;28;20041;-90
2023/10/10 08:03:48;;;;;;;17.35;7.05;;;;;;;15.92;100.00;98733.03;2576090;28;20038;-91
2023/10/10 08:05:09;;;;;;;13.13;7.13;;;;;;;16.01;100.00;98721.19;2576708;28;20101;-91
2023/10/10 08:06:25;;;;;;;13.37;7.53;;;;;;;16.11;100.00;98718.97;2581396;28;20052;-90
2023/10/10 08:07:41;;;;;;;10.73;6.82;;;;;;;16.33;100.00;98716.19;2568472;28;20129;-91
2023/10/10 08:10:38;;;;;;;11.82;6.60;;;;;;;16.49;100.00;98716.31;2585061;28;20034;-90
2023/10/10 08:11:55;;;;;;;11.32;6.68;;;;;;;16.70;100.00;98724.13;2577990;28;20100;-90
2023/10/10 08:13:10;;;;;;;9.25;5.82;;;;;;;16.67;100.00;98727.75;2582695;28;20053;-90
2023/10/10 08:14:31;;;;;;;13.65;6.80;;;;;;;16.92;100.00;98725.72;2589413;28;20112;-90
2023/10/10 08:17:18;;;;;;;8.70;6.07;;;;;;;17.03;100.00;98727.84;2589225;28;20060;-89
2023/10/10 08:20:31;;;;;;;17.30;6.93;;;;;;;16.85;100.00;98730.47;2584206;28;20508;-90
2023/10/10 08:21:39;;;;;;;9.50;6.28;;;;;;;16.88;100.00;98737.38;2588990;28;20048;-90
2023/10/10 08:22:59;;;;;;;10.88;6.75;;;;;;;16.69;100.00;98733.00;2578244;28;20101;-89
2023/10/10 08:24:15;;;;;;;10.98;6.38;;;;;;;16.97;100.00;98734.28;2583011;28;20073;-89